Data for 10/16/2014

Time Sea-Level Adjusted Pressure Absolute Pressure Temperature Relative Humidity Dew Point   
(mb) (inHg) (mb) (inHg) (C) (F) (%) (C) (F)
00:05 1018 30.06 847 25.01 7 44.5 50 -2.7 27.1
00:10 1018 30.06 847 25.01 6.9 44.4 51 -2.6 27.4
00:15 1018 30.06 847 25.01 6.7 44 53 -2.1 28.2
00:20 1018 30.06 847 25.01 6.3 43.4 54 -2.2 28
00:25 1018 30.06 847 25.01 6.1 43 55 -2.3 27.9
00:30 1018 30.06 847 25.01 6 42.7 54 -2.5 27.5
00:35 1018 30.06 847 25.01 5.9 42.7 53 -2.9 26.8
00:40 1018 30.06 847 25.01 5.9 42.6 52 -3.1 26.5
00:45 1018 30.06 847 25.01 5.8 42.4 53 -2.9 26.7
00:50 1018 30.06 848 25.04 5.7 42.2 53 -3.2 26.3
00:55 1018 30.06 848 25.04 5.6 42.2 53 -3.3 26.1
01:00 1018 30.06 848 25.04 5.7 42.3 54 -2.9 26.8
01:05 1018 30.06 848 25.04 5.8 42.4 55 -2.6 27.2
01:10 1018 30.06 848 25.04 5.6 42.2 56 -2.5 27.4
01:15 1019 30.09 848 25.04 5.6 42.2 55 -2.7 27.1
01:20 1019 30.09 848 25.04 5.7 42.3 54 -2.9 26.7
01:25 1019 30.09 848 25.04 6 42.8 52 -3.1 26.4
01:30 1019 30.09 848 25.04 6.1 43 52 -3.1 26.4
01:35 1019 30.09 848 25.04 6.2 43.1 50 -3.4 26
01:40 1019 30.09 848 25.04 6.3 43.3 50 -3.4 25.9
01:45 1019 30.09 848 25.04 6.3 43.3 50 -3.4 25.9
01:50 1019 30.09 848 25.04 6.2 43.2 50 -3.4 25.9
01:55 1019 30.09 848 25.04 6.1 43 50 -3.5 25.8
02:00 1019 30.09 849 25.07 6.1 42.9 50 -3.5 25.7
02:05 1020 30.12 849 25.07 6.1 43.1 50 -3.6 25.6
02:10 1020 30.12 849 25.07 6.3 43.4 47 -4 24.7
02:15 1020 30.12 849 25.07 6.3 43.3 52 -2.9 26.7
02:20 1020 30.12 849 25.07 6.2 43.1 53 -2.7 27.2
02:25 1020 30.12 849 25.07 6.2 43.2 52 -2.8 26.9
02:30 1020 30.12 849 25.07 6.3 43.4 52 -2.8 26.9
02:35 1020 30.12 849 25.07 6.5 43.7 51 -3 26.6
02:40 1020 30.12 849 25.07 6.6 43.9 50 -3 26.5
02:45 1020 30.12 849 25.07 6.5 43.7 50 -3.2 26.2
02:50 1020 30.12 849 25.07 6.4 43.5 50 -3.1 26.3
02:55 1020 30.12 849 25.07 6.3 43.3 51 -3.1 26.4
03:00 1020 30.12 849 25.07 6.2 43.1 50 -3.4 25.9
03:05 1020 30.12 849 25.07 6.2 43.1 51 -3.1 26.4
03:10 1020 30.12 849 25.07 6.1 43 51 -3.3 26
03:15 1020 30.12 849 25.07 6.2 43.1 50 -3.5 25.7
03:20 1020 30.12 849 25.07 6.2 43.1 50 -3.5 25.7
03:25 1020 30.12 849 25.07 6 42.9 51 -3.4 25.8
03:30 1020 30.12 849 25.07 5.9 42.7 51 -3.5 25.7
03:35 1020 30.12 849 25.07 5.9 42.6 51 -3.3 26
03:40 1020 30.12 849 25.07 5.8 42.5 51 -3.5 25.7
03:45 1020 30.12 849 25.07 5.8 42.4 52 -3.3 26
03:50 1020 30.12 849 25.07 5.6 42.2 53 -3.1 26.4
03:55 1020 30.12 850 25.1 5.4 41.8 53 -3.4 25.9
04:00 1020 30.12 850 25.1 5.4 41.8 52 -3.6 25.6
04:05 1020 30.12 850 25.1 5.5 41.9 51 -3.7 25.3
04:10 1020 30.12 850 25.1 5.6 42 50 -4.1 24.6
04:15 1020 30.12 850 25.1 5.7 42.3 50 -4 24.8
04:20 1020 30.12 850 25.1 5.6 42.1 51 -3.8 25.1
04:25 1021 30.15 850 25.1 5.4 41.7 52 -3.7 25.3
04:30 1021 30.15 850 25.1 5.2 41.4 53 -3.5 25.7
04:35 1021 30.15 850 25.1 5 40.9 53 -3.9 25
04:40 1021 30.15 850 25.1 4.8 40.6 54 -3.7 25.3
04:45 1021 30.15 850 25.1 4.4 40 56 -3.6 25.6
04:50 1021 30.15 850 25.1 4.4 40 56 -3.7 25.4
04:55 1021 30.15 850 25.1 4.6 40.2 56 -3.5 25.7
05:00 1021 30.15 850 25.1 4.6 40.2 55 -3.6 25.5
05:05 1021 30.15 850 25.1 4.5 40.1 56 -3.4 25.9
05:10 1021 30.15 850 25.1 3.9 39.1 57 -3.8 25.2
05:15 1021 30.15 850 25.1 3.9 39 58 -3.6 25.5
05:20 1021 30.15 850 25.1 4.2 39.6 54 -4.2 24.4
05:25 1021 30.15 850 25.1 4.8 40.6 51 -4.5 23.9
05:30 1021 30.15 850 25.1 5 40.9 53 -3.9 24.9
05:35 1021 30.15 850 25.1 4.8 40.6 52 -4.2 24.5
05:40 1021 30.15 850 25.1 4.8 40.6 53 -4.1 24.7
05:45 1021 30.15 850 25.1 4.5 40.2 56 -3.4 25.8
05:50 1021 30.15 850 25.1 3.7 38.6 58 -3.8 25.2
05:55 1021 30.15 850 25.1 3.2 37.8 58 -4.2 24.5
06:00 1021 30.15 850 25.1 3.2 37.8 59 -4.1 24.7
06:05 1021 30.15 850 25.1 3.1 37.6 61 -3.7 25.3
06:10 1021 30.15 850 25.1 2.7 36.8 63 -3.8 25.2
06:15 1021 30.15 850 25.1 2.3 36.2 60 -4.6 23.8
06:20 1021 30.15 850 25.1 2.7 36.9 58 -4.7 23.5
06:25 1021 30.15 850 25.1 3.1 37.6 58 -4.3 24.2
06:30 1021 30.15 850 25.1 3 37.4 58 -4.5 23.9
06:35 1021 30.15 850 25.1 2.9 37.2 60 -4.1 24.6
06:40 1021 30.15 850 25.1 2.7 36.9 61 -4.1 24.7
06:45 1021 30.15 850 25.1 2.1 35.8 63 -4.3 24.3
06:50 1021 30.15 850 25.1 2.4 36.3 59 -4.7 23.5
06:55 1021 30.15 850 25.1 2.8 37 58 -4.6 23.7
07:00 1021 30.15 850 25.1 3 37.4 60 -4.1 24.7
07:05 1021 30.15 851 25.13 2.9 37.2 60 -4.1 24.6
07:10 1021 30.15 851 25.13 2.3 36.1 62 -4.3 24.2
07:15 1021 30.15 851 25.13 2.4 36.4 60 -4.5 23.9
07:20 1021 30.15 851 25.13 3.1 37.5 58 -4.4 24.2
07:25 1021 30.15 851 25.13 3.3 37.9 57 -4.3 24.2
07:30 1021 30.15 850 25.1 3.6 38.4 55 -4.6 23.6
07:35 1021 30.15 850 25.1 3.6 38.6 58 -4 24.9
07:40 1021 30.15 850 25.1 3.5 38.4 57 -4.1 24.6
07:45 1021 30.15 850 25.1 3.5 38.3 56 -4.5 23.8
07:50 1021 30.15 850 25.1 3.9 38.9 56 -4.2 24.5
07:55 1021 30.15 850 25.1 4.2 39.5 55 -4.1 24.6
08:00 1021 30.15 851 25.13 4.9 40.8 52 -4.2 24.5
08:05 1021 30.15 851 25.13 5.8 42.4 50 -4 24.8
08:10 1021 30.15 851 25.13 5.7 42.3 52 -3.3 26.1
08:15 1021 30.15 851 25.13 5.9 42.6 52 -3.2 26.2
08:20 1022 30.18 851 25.13 6.2 43.2 50 -3.4 25.9
08:25 1022 30.18 851 25.13 7.3 45.2 46 -3.4 25.9
08:30 1022 30.18 851 25.13 7.5 45.5 48 -2.8 27
08:35 1022 30.18 851 25.13 7.4 45.2 45 -3.7 25.4
08:40 1022 30.18 851 25.13 8.1 46.5 40 -4.6 23.8
08:45 1022 30.18 851 25.13 8.2 46.8 40 -4.4 24
08:50 1022 30.18 851 25.13 8 46.4 39 -5 23.1
08:55 1022 30.18 851 25.13 8.4 47.2 39 -4.9 23.2
09:00 1022 30.18 851 25.13 9 48.1 38 -4.5 23.8
09:05 1022 30.18 851 25.13 9.1 48.4 38 -4.5 23.8
09:10 1022 30.18 851 25.13 9.2 48.5 37 -4.8 23.3
09:15 1022 30.18 851 25.13 8.6 47.5 37 -5.3 22.4
09:20 1022 30.18 851 25.13 9.1 48.3 35 -5.5 22.2
09:25 1022 30.18 851 25.13 9.7 49.5 34 -5.2 22.6
09:30 1022 30.18 851 25.13 9.6 49.2 36 -4.8 23.3
09:35 1022 30.18 851 25.13 9.6 49.3 33 -5.8 21.5
09:40 1022 30.18 851 25.13 9.3 48.7 34 -5.6 21.9
09:45 1022 30.18 851 25.13 9.3 48.8 34 -5.7 21.8
09:50 1022 30.18 851 25.13 9.6 49.2 33 -5.8 21.6
09:55 1022 30.18 851 25.13 10.5 50.8 32 -5.6 21.9
10:00 1022 30.18 851 25.13 10.7 51.3 32 -5.4 22.4
10:05 1022 30.18 851 25.13 10.3 50.6 33 -5.1 22.9
10:10 1022 30.18 851 25.13 10.5 50.9 32 -5.4 22.3
10:15 1022 30.18 851 25.13 10.6 51 32 -5.5 22.1
10:20 1022 30.18 851 25.13 10.1 50.1 33 -5.6 21.9
10:25 1022 30.18 851 25.13 9.9 49.9 34 -5.3 22.5
10:30 1022 30.18 851 25.13 10.6 51.1 31 -6 21.3
10:35 1022 30.18 851 25.13 10.6 51.1 32 -5.3 22.5
10:40 1022 30.18 851 25.13 9.8 49.7 33 -5.6 22
10:45 1022 30.18 851 25.13 10.5 50.9 31 -6.1 21.1
10:50 1022 30.18 851 25.13 10.8 51.5 33 -4.9 23.3
10:55 1022 30.18 851 25.13 9.6 49.4 33 -5.8 21.5
11:00 1022 30.18 851 25.13 9.8 49.7 34 -5.2 22.6
11:05 1022 30.18 851 25.13 9.6 49.3 34 -5.4 22.2
11:10 1022 30.18 851 25.13 9.3 48.7 36 -5.1 22.9
11:15 1022 30.18 851 25.13 9.8 49.6 33 -5.6 22
11:20 1022 30.18 851 25.13 10.3 50.5 32 -5.6 22
11:25 1022 30.18 851 25.13 10.2 50.4 33 -5.4 22.2
11:30 1022 30.18 851 25.13 10.1 50.2 32 -5.8 21.6
11:35 1022 30.18 851 25.13 10.7 51.3 32 -5.4 22.3
11:40 1022 30.18 851 25.13 11 51.8 32 -5 23.1
11:45 1022 30.18 851 25.13 11 51.9 32 -5.2 22.7
11:50 1022 30.18 851 25.13 11.3 52.4 31 -5.3 22.5
11:55 1022 30.18 851 25.13 10.6 51 32 -5.3 22.5
12:00 1022 30.18 851 25.13 10.7 51.3 33 -5 23
12:05 1022 30.18 851 25.13 10.7 51.2 33 -5.1 22.9
12:10 1021 30.15 851 25.13 10.8 51.4 32 -5.4 22.3
12:15 1021 30.15 851 25.13 11.6 52.8 32 -4.7 23.6
12:20 1021 30.15 851 25.13 11.9 53.4 31 -4.7 23.5
12:25 1021 30.15 850 25.1 11.9 53.4 32 -4.3 24.3
12:30 1021 30.15 850 25.1 11.3 52.3 33 -4.5 23.9
12:35 1021 30.15 850 25.1 11.2 52.2 33 -4.6 23.8
12:40 1021 30.15 850 25.1 11.7 53.1 32 -4.5 23.9
12:45 1021 30.15 850 25.1 11.2 52.2 33 -4.6 23.7
12:50 1021 30.15 850 25.1 11.4 52.6 31 -4.9 23.2
12:55 1021 30.15 850 25.1 11.6 52.9 32 -4.6 23.7
13:00 1021 30.15 850 25.1 10.9 51.6 34 -4.2 24.5
13:05 1021 30.15 850 25.1 11.1 51.9 32 -4.8 23.3
13:10 1021 30.15 850 25.1 11.9 53.4 31 -4.5 23.9
13:15 1021 30.15 850 25.1 12 53.5 33 -3.6 25.5
13:20 1021 30.15 850 25.1 11.1 52 33 -4.3 24.2
13:25 1021 30.15 850 25.1 11.1 52 33 -4.5 23.9
13:30 1021 30.15 850 25.1 11 51.8 35 -3.9 25
13:35 1021 30.15 850 25.1 10.6 51.2 34 -4.6 23.8
13:40 1021 30.15 850 25.1 10.9 51.6 34 -4.4 24
13:45 1021 30.15 850 25.1 11.4 52.5 33 -4.4 24.1
13:50 1021 30.15 850 25.1 11.4 52.5 33 -4.2 24.5
13:55 1021 30.15 850 25.1 11.1 51.9 34 -4.2 24.4
14:00 1021 30.15 850 25.1 11.4 52.5 33 -4.2 24.5
14:05 1021 30.15 850 25.1 11 51.8 33 -4.6 23.7
14:10 1021 30.15 850 25.1 11 51.8 34 -4.1 24.6
14:15 1021 30.15 850 25.1 11.1 52 33 -4.4 24
14:20 1021 30.15 850 25.1 10.9 51.5 35 -3.9 25
14:25 1021 30.15 850 25.1 11 51.8 33 -4.5 23.9
14:30 1021 30.15 850 25.1 10.6 51 35 -4.3 24.3
14:35 1021 30.15 850 25.1 10.5 50.8 35 -4.3 24.3
14:40 1021 30.15 850 25.1 10.2 50.4 36 -4.2 24.5
14:45 1021 30.15 850 25.1 10.6 51 34 -4.4 24
14:50 1021 30.15 850 25.1 10.9 51.7 34 -4.4 24.1
14:55 1021 30.15 850 25.1 10.7 51.2 35 -4.2 24.4
15:00 1021 30.15 850 25.1 10.4 50.7 36 -4 24.7
15:05 1021 30.15 850 25.1 9.9 49.9 36 -4.3 24.2
15:10 1021 30.15 850 25.1 10.1 50.2 36 -4.3 24.2
15:15 1021 30.15 850 25.1 10 50 37 -4.1 24.5
15:20 1021 30.15 850 25.1 9.9 49.8 37 -4.2 24.4
15:25 1021 30.15 850 25.1 10.3 50.5 35 -4.7 23.6
15:30 1021 30.15 850 25.1 10.2 50.4 35 -4.4 24
15:35 1021 30.15 850 25.1 10.3 50.5 35 -4.4 24.1
15:40 1021 30.15 850 25.1 10.3 50.5 36 -4.3 24.3
15:45 1021 30.15 850 25.1 10.3 50.6 35 -4.4 24.1
15:50 1021 30.15 850 25.1 10.2 50.3 36 -4.2 24.4
15:55 1021 30.15 850 25.1 9.8 49.7 37 -4.2 24.5
16:00 1021 30.15 850 25.1 10 49.9 36 -4.5 23.8
16:05 1021 30.15 850 25.1 10.2 50.4 36 -4.1 24.6
16:10 1021 30.15 850 25.1 10.1 50.1 37 -4 24.7
16:15 1020 30.12 850 25.1 10 49.9 37 -4 24.9
16:20 1021 30.15 850 25.1 10.1 50.2 36 -4.2 24.5
16:25 1021 30.15 850 25.1 10.1 50.1 37 -4 24.8
16:30 1021 30.15 850 25.1 9.9 49.8 37 -4.1 24.6
16:35 1021 30.15 850 25.1 9.8 49.6 38 -4 24.8
16:40 1021 30.15 850 25.1 9.8 49.7 37 -4.2 24.5
16:45 1021 30.15 850 25.1 10 49.9 37 -4.1 24.7
16:50 1021 30.15 850 25.1 10.1 50.1 37 -4.1 24.6
16:55 1021 30.15 850 25.1 10 50 36 -4.2 24.4
17:00 1021 30.15 850 25.1 10 50.1 37 -3.8 25.1
17:05 1021 30.15 850 25.1 10.1 50.1 37 -3.9 24.9
17:10 1020 30.12 850 25.1 10.1 50.1 36 -4.1 24.6
17:15 1020 30.12 850 25.1 10 50 38 -3.7 25.3
17:20 1021 30.15 850 25.1 10 50 38 -3.5 25.6
17:25 1021 30.15 850 25.1 9.9 49.8 38 -3.8 25.2
17:30 1021 30.15 850 25.1 9.6 49.3 43 -2.4 27.6
17:35 1021 30.15 850 25.1 9.4 48.9 42 -2.8 26.9
17:40 1021 30.15 850 25.1 9.4 48.9 41 -3.2 26.2
17:45 1020 30.12 850 25.1 9.3 48.7 43 -2.6 27.3
17:50 1020 30.12 849 25.07 9.1 48.4 46 -1.8 28.8
17:55 1020 30.12 850 25.1 8.8 47.9 47 -1.9 28.6
18:00 1020 30.12 850 25.1 8.8 47.9 46 -2.1 28.2
18:05 1021 30.15 850 25.1 8.9 48 46 -1.9 28.5
18:10 1021 30.15 850 25.1 9 48.2 43 -2.8 27
18:15 1020 30.12 850 25.1 8.9 48 45 -2.4 27.7
18:20 1020 30.12 850 25.1 8.5 47.4 48 -1.9 28.7
18:25 1021 30.15 850 25.1 8.3 46.9 50 -1.4 29.4
18:30 1021 30.15 850 25.1 8.2 46.7 51 -1.3 29.7
18:35 1020 30.12 850 25.1 7.9 46.2 52 -1.2 29.8
18:40 1020 30.12 850 25.1 7.8 46.1 52 -1.3 29.6
18:45 1021 30.15 850 25.1 8 46.4 53 -1 30.2
18:50 1020 30.12 850 25.1 8 46.4 54 -0.7 30.8
18:55 1020 30.12 850 25.1 7.7 45.8 56 -0.6 31
19:00 1020 30.12 850 25.1 7.5 45.6 55 -0.8 30.5
19:05 1020 30.12 850 25.1 7.2 45 57 -0.8 30.6
19:10 1020 30.12 850 25.1 7.1 44.8 56 -1 30.2
19:15 1020 30.12 850 25.1 7.1 44.8 55 -1.4 29.6
19:20 1020 30.12 850 25.1 7.1 44.8 55 -1.3 29.6
19:25 1020 30.12 850 25.1 7 44.6 55 -1.3 29.6
19:30 1020 30.12 850 25.1 6.8 44.3 55 -1.5 29.3
19:35 1020 30.12 850 25.1 6.8 44.3 54 -1.8 28.8
19:40 1020 30.12 850 25.1 6.8 44.3 53 -2.1 28.2
19:45 1020 30.12 850 25.1 6.9 44.4 54 -1.8 28.8
19:50 1020 30.12 850 25.1 6.7 44.1 55 -1.6 29.1
19:55 1020 30.12 850 25.1 6.5 43.7 56 -1.7 29
20:00 1020 30.12 850 25.1 6.3 43.3 55 -2.1 28.3
20:05 1020 30.12 850 25.1 6.3 43.3 57 -1.6 29.1
20:10 1020 30.12 850 25.1 6.1 42.9 58 -1.5 29.3
20:15 1020 30.12 850 25.1 5.9 42.6 59 -1.6 29.2
20:20 1020 30.12 850 25.1 5.8 42.4 60 -1.5 29.3
20:25 1020 30.12 850 25.1 5.6 42.1 60 -1.6 29.2
20:30 1020 30.12 850 25.1 5.6 42 59 -1.7 28.9
20:35 1020 30.12 850 25.1 5.6 42.1 59 -1.8 28.8
20:40 1020 30.12 850 25.1 5.5 41.9 59 -1.9 28.7
20:45 1020 30.12 850 25.1 5.4 41.7 60 -1.8 28.7
20:50 1021 30.15 850 25.1 5.3 41.6 59 -2.1 28.2
20:55 1021 30.15 850 25.1 5.5 41.9 57 -2.4 27.7
21:00 1021 30.15 850 25.1 5.6 42.1 56 -2.4 27.7
21:05 1021 30.15 850 25.1 5.5 41.8 57 -2.4 27.6
21:10 1021 30.15 850 25.1 5.4 41.7 57 -2.5 27.6
21:15 1020 30.12 850 25.1 5.2 41.4 57 -2.5 27.5
21:20 1020 30.12 850 25.1 5.1 41.3 57 -2.6 27.3
21:25 1021 30.15 850 25.1 5 41 57 -2.9 26.8
21:30 1020 30.12 850 25.1 5 41 56 -2.9 26.7
21:35 1020 30.12 850 25.1 5.1 41.1 55 -3.1 26.3
21:40 1020 30.12 850 25.1 5 41.1 56 -3.1 26.5
21:45 1020 30.12 850 25.1 4.9 40.8 56 -3.1 26.5
21:50 1020 30.12 850 25.1 4.7 40.5 57 -3.1 26.3
21:55 1020 30.12 850 25.1 4.7 40.4 57 -3.2 26.3
22:00 1020 30.12 850 25.1 4.5 40.1 57 -3.2 26.2
22:05 1020 30.12 850 25.1 4.3 39.7 59 -3 26.6
22:10 1021 30.15 850 25.1 4.1 39.3 58 -3.6 25.6
22:15 1021 30.15 850 25.1 4.5 40.1 56 -3.5 25.7
22:20 1021 30.15 850 25.1 4.5 40.1 56 -3.4 25.8
22:25 1021 30.15 850 25.1 4.4 40 56 -3.5 25.6
22:30 1021 30.15 850 25.1 4.5 40.2 55 -3.6 25.5
22:35 1021 30.15 850 25.1 4.7 40.4 55 -3.7 25.4
22:40 1021 30.15 850 25.1 4.9 40.8 54 -3.6 25.6
22:45 1021 30.15 850 25.1 4.6 40.4 56 -3.5 25.7
22:50 1021 30.15 850 25.1 4.5 40 55 -3.7 25.3
22:55 1021 30.15 850 25.1 4.4 39.9 56 -3.7 25.4
23:00 1021 30.15 850 25.1 4.5 40.1 56 -3.6 25.6
23:05 1021 30.15 850 25.1 4.2 39.6 57 -3.6 25.5
23:10 1021 30.15 850 25.1 4.3 39.8 54 -4 24.7
23:15 1021 30.15 850 25.1 4.6 40.3 52 -4.4 24
23:20 1021 30.15 850 25.1 5 41 51 -4.3 24.3
23:25 1021 30.15 850 25.1 5.1 41.1 51 -4.2 24.4
23:30 1021 30.15 850 25.1 4.9 40.8 52 -4.1 24.6
23:35 1021 30.15 850 25.1 4.7 40.5 53 -4 24.8
23:40 1021 30.15 850 25.1 4.6 40.2 55 -3.8 25.2
23:45 1021 30.15 850 25.1 4.1 39.3 58 -3.4 25.8
23:50 1021 30.15 850 25.1 3.6 38.5 59 -3.7 25.3
23:55 1021 30.15 850 25.1 3.5 38.2 58 -4.1 24.7
24:00 1021 30.15 850 25.1 3.5 38.3 57 -4.3 24.3